createdAt,value
2023-02-19T00:00:26.115Z,7.35
2023-02-19T00:02:59.242Z,7.49
2023-02-19T00:05:29.726Z,7.37
2023-02-19T00:07:58.974Z,7.35
2023-02-19T00:10:31.035Z,7.61
2023-02-19T00:13:02.230Z,7.33
2023-02-19T00:15:36.986Z,7.48
2023-02-19T00:18:07.273Z,7.49
2023-02-19T00:20:39.360Z,7.39
2023-02-19T00:23:11.913Z,7.30
2023-02-19T00:25:42.112Z,7.48
2023-02-19T00:28:11.952Z,7.29
2023-02-19T00:30:41.756Z,7.19
2023-02-19T00:33:11.929Z,7.20
2023-02-19T00:35:41.335Z,6.75
2023-02-19T00:38:11.645Z,6.49
2023-02-19T00:40:41.175Z,6.47
2023-02-19T00:43:11.588Z,6.45
2023-02-19T00:45:42.979Z,6.39
2023-02-19T00:48:13.205Z,6.53
2023-02-19T00:50:43.695Z,6.36
2023-02-19T00:53:13.097Z,6.26
2023-02-19T00:55:42.644Z,6.33
2023-02-19T00:58:12.156Z,6.30
2023-02-19T01:00:41.738Z,6.33
2023-02-19T01:03:14.435Z,6.22
2023-02-19T01:05:44.439Z,6.12
2023-02-19T01:08:13.739Z,6.29
2023-02-19T01:10:43.724Z,6.25
2023-02-19T01:17:18.329Z,6.16
2023-02-19T01:19:48.143Z,6.19
2023-02-19T01:22:17.084Z,6.59
2023-02-19T01:24:47.420Z,6.33
2023-02-19T01:27:18.973Z,6.17
2023-02-19T01:29:52.015Z,6.19
2023-02-19T01:32:21.201Z,6.19
2023-02-19T01:34:53.869Z,5.97
2023-02-19T01:37:23.474Z,5.78
2023-02-19T01:39:52.358Z,5.78
2023-02-19T01:42:24.058Z,5.79
2023-02-19T01:45:34.513Z,5.80
2023-02-19T01:48:09.990Z,5.79
2023-02-19T01:50:43.932Z,6.11
2023-02-19T01:53:15.398Z,5.85
2023-02-19T01:55:45.457Z,5.89
2023-02-19T01:58:16.486Z,6.29
2023-02-19T02:00:45.894Z,5.99
2023-02-19T02:03:16.940Z,6.08
2023-02-19T02:06:17.563Z,5.81
2023-02-19T02:09:05.891Z,5.91
2023-02-19T02:11:35.370Z,6.26
2023-02-19T02:14:05.806Z,6.11
2023-02-19T02:16:40.917Z,6.39
2023-02-19T02:19:33.028Z,6.31
2023-02-19T02:22:08.480Z,6.10
2023-02-19T02:25:09.129Z,6.12
2023-02-19T02:28:02.632Z,6.03
2023-02-19T02:30:48.249Z,6.07
2023-02-19T02:33:32.826Z,5.93
2023-02-19T02:36:09.253Z,5.97
2023-02-19T02:38:40.908Z,6.03
2023-02-19T02:41:12.022Z,6.16
2023-02-19T02:43:44.989Z,6.32
2023-02-19T02:46:20.313Z,6.29
2023-02-19T02:49:16.198Z,6.47
2023-02-19T02:51:48.903Z,6.45
2023-02-19T02:54:46.573Z,6.23
2023-02-19T02:57:16.176Z,6.11
2023-02-19T02:59:52.217Z,6.35
2023-02-19T03:02:28.779Z,6.39
2023-02-19T03:05:36.551Z,6.59
2023-02-19T03:08:17.296Z,6.59
2023-02-19T03:10:56.482Z,6.51
2023-02-19T03:13:52.918Z,6.61
2023-02-19T03:16:43.816Z,6.58
2023-02-19T03:19:21.762Z,6.54
2023-02-19T03:22:02.720Z,6.67
2023-02-19T03:24:52.294Z,6.64
2023-02-19T03:27:22.120Z,6.74
2023-02-19T03:29:55.435Z,6.99
2023-02-19T03:32:38.639Z,7.02
2023-02-19T03:35:16.513Z,6.84
2023-02-19T03:38:12.354Z,7.05
2023-02-19T03:40:54.730Z,7.16
2023-02-19T03:43:33.956Z,7.11
2023-02-19T03:46:09.803Z,7.18
2023-02-19T03:49:02.376Z,7.23
2023-02-19T03:51:52.943Z,7.09
2023-02-19T03:54:49.563Z,7.16
2023-02-19T03:57:25.630Z,7.01
2023-02-19T04:00:07.857Z,6.95
2023-02-19T04:02:58.502Z,7.01
2023-02-19T04:05:30.234Z,7.05
2023-02-19T04:08:05.388Z,6.88
2023-02-19T04:10:38.505Z,6.81
2023-02-19T04:13:20.555Z,6.79
2023-02-19T04:15:49.881Z,6.59
2023-02-19T04:18:32.510Z,6.40
2023-02-19T04:21:04.058Z,6.50
2023-02-19T04:23:37.012Z,6.83
2023-02-19T04:26:09.876Z,7.04
2023-02-19T04:28:39.922Z,7.14
2023-02-19T04:31:10.142Z,7.28
2023-02-19T04:33:41.128Z,7.30
2023-02-19T04:36:11.467Z,7.47
2023-02-19T04:38:40.904Z,7.36
2023-02-19T04:41:14.532Z,7.54
2023-02-19T04:43:43.965Z,7.59
2023-02-19T04:46:13.030Z,7.58
2023-02-19T04:48:44.703Z,7.60
2023-02-19T04:51:14.174Z,7.41
2023-02-19T04:53:44.196Z,7.33
2023-02-19T04:56:15.639Z,7.25
2023-02-19T04:58:45.725Z,7.40
2023-02-19T05:01:17.043Z,7.64
2023-02-19T05:03:49.694Z,7.36
2023-02-19T05:06:20.044Z,7.51
2023-02-19T05:08:53.257Z,7.72
2023-02-19T05:11:24.938Z,7.55
2023-02-19T05:13:56.081Z,7.78
2023-02-19T05:16:26.295Z,7.81
2023-02-19T05:18:55.954Z,7.80
2023-02-19T05:21:25.618Z,7.96
2023-02-19T05:23:54.898Z,7.93
2023-02-19T05:26:24.726Z,7.93
2023-02-19T05:28:54.836Z,8.07
2023-02-19T05:31:24.732Z,8.01
2023-02-19T05:33:56.834Z,8.03
2023-02-19T05:36:27.311Z,7.99
2023-02-19T05:38:57.670Z,8.07
2023-02-19T05:41:28.249Z,7.70
2023-02-19T05:43:58.998Z,7.83
2023-02-19T05:46:33.204Z,7.68
2023-02-19T05:49:04.146Z,7.56
2023-02-19T05:51:33.645Z,7.65
2023-02-19T05:54:03.286Z,7.43
2023-02-19T05:56:37.183Z,7.63
2023-02-19T05:59:28.223Z,7.38
2023-02-19T06:01:59.478Z,7.38
2023-02-19T06:04:28.942Z,7.29
2023-02-19T06:06:59.799Z,7.38
2023-02-19T06:09:31.530Z,7.28
2023-02-19T06:12:01.281Z,7.43
2023-02-19T06:14:33.725Z,7.40
2023-02-19T06:17:04.343Z,7.50
2023-02-19T06:19:34.405Z,7.41
2023-02-19T06:22:04.202Z,7.36
2023-02-19T06:24:37.840Z,7.39
2023-02-19T06:27:08.500Z,7.20
2023-02-19T06:29:41.118Z,7.24
2023-02-19T06:32:11.965Z,7.11
2023-02-19T06:34:41.610Z,7.06
2023-02-19T06:37:11.254Z,7.02
2023-02-19T06:39:55.053Z,7.11
2023-02-19T06:42:26.355Z,6.98
2023-02-19T06:44:55.618Z,6.98
2023-02-19T06:47:26.075Z,6.91
2023-02-19T06:49:59.159Z,6.85
2023-02-19T06:52:28.779Z,6.74
2023-02-19T06:54:58.951Z,6.74
2023-02-19T06:57:30.248Z,6.60
2023-02-19T07:00:01.261Z,6.58
2023-02-19T07:02:33.657Z,6.56
2023-02-19T07:05:09.895Z,6.42
2023-02-19T07:07:42.175Z,6.42
2023-02-19T07:10:14.098Z,6.28
2023-02-19T07:12:44.357Z,6.45
2023-02-19T07:15:14.126Z,6.61
2023-02-19T07:17:45.514Z,6.57
2023-02-19T07:20:15.491Z,6.59
2023-02-19T07:22:48.672Z,6.77
2023-02-19T07:25:18.893Z,6.67
2023-02-19T07:27:48.366Z,6.65
2023-02-19T07:30:19.565Z,6.72
2023-02-19T07:32:50.378Z,7.14
2023-02-19T07:35:19.933Z,7.18
2023-02-19T07:37:49.680Z,7.31
2023-02-19T07:40:19.222Z,7.19
2023-02-19T07:42:52.556Z,7.27
2023-02-19T07:45:21.957Z,7.60
2023-02-19T07:47:51.791Z,7.32
2023-02-19T07:50:22.775Z,7.44
2023-02-19T07:52:53.136Z,7.29
2023-02-19T07:55:22.434Z,7.20
2023-02-19T07:57:51.744Z,7.28
2023-02-19T08:00:21.873Z,7.36
2023-02-19T08:03:03.972Z,7.32
2023-02-19T08:05:43.174Z,7.24
2023-02-19T08:08:15.937Z,7.40
2023-02-19T08:11:04.880Z,7.55
2023-02-19T08:13:35.434Z,7.50
2023-02-19T08:16:18.423Z,7.59
2023-02-19T08:18:53.012Z,7.56
2023-02-19T08:21:23.312Z,7.45
2023-02-19T08:23:52.732Z,7.58
2023-02-19T08:26:22.347Z,7.82
2023-02-19T08:28:51.862Z,7.87
2023-02-19T08:31:28.378Z,7.91
2023-02-19T08:33:58.190Z,7.84
2023-02-19T08:36:28.062Z,8.07
2023-02-19T08:38:57.879Z,7.92
2023-02-19T08:41:27.366Z,8.04
2023-02-19T08:43:57.188Z,8.28
2023-02-19T08:46:28.877Z,8.30
2023-02-19T08:48:58.429Z,8.25
2023-02-19T08:51:28.148Z,8.26
2023-02-19T08:53:57.425Z,7.92
2023-02-19T08:56:26.631Z,7.91
2023-02-19T08:58:55.750Z,7.71
2023-02-19T09:01:25.074Z,7.72
2023-02-19T09:03:58.712Z,7.75
2023-02-19T09:06:28.956Z,7.73
2023-02-19T09:08:58.834Z,7.82
2023-02-19T09:11:29.603Z,7.78
2023-02-19T09:14:02.931Z,7.56
2023-02-19T09:16:37.150Z,7.64
2023-02-19T09:19:06.798Z,7.48
2023-02-19T09:21:36.725Z,7.57
2023-02-19T09:24:06.144Z,7.57
2023-02-19T09:26:37.647Z,7.63
2023-02-19T09:29:07.764Z,7.63
2023-02-19T09:31:37.207Z,7.64
2023-02-19T09:34:18.149Z,7.82
2023-02-19T09:36:49.800Z,7.94
2023-02-19T09:39:20.470Z,7.83
2023-02-19T09:41:55.216Z,7.53
2023-02-19T09:44:32.618Z,7.50
2023-02-19T09:47:02.891Z,7.38
2023-02-19T09:49:35.042Z,7.28
2023-02-19T09:52:09.118Z,7.44
2023-02-19T09:54:37.876Z,7.44
2023-02-19T09:57:06.610Z,7.38
2023-02-19T09:59:42.694Z,7.57
2023-02-19T10:02:26.207Z,7.54
2023-02-19T10:04:58.079Z,7.57
2023-02-19T10:07:39.179Z,7.48
2023-02-19T10:10:15.783Z,7.35
2023-02-19T10:12:48.110Z,7.48
2023-02-19T10:15:32.438Z,7.55
2023-02-19T10:18:11.299Z,7.48
2023-02-19T10:20:41.567Z,7.46
2023-02-19T10:23:11.751Z,7.43
2023-02-19T10:25:44.766Z,7.27
2023-02-19T10:28:16.368Z,7.26
2023-02-19T10:30:46.627Z,7.27
2023-02-19T10:33:16.601Z,7.26
2023-02-19T10:36:06.328Z,7.34
2023-02-19T10:38:38.928Z,7.35
2023-02-19T10:41:20.381Z,7.38
2023-02-19T10:44:03.520Z,7.26
2023-02-19T10:46:56.139Z,7.15
2023-02-19T10:49:33.050Z,7.19
2023-02-19T10:52:11.022Z,7.21
2023-02-19T10:54:41.355Z,7.06
2023-02-19T10:57:30.941Z,6.96
2023-02-19T11:00:23.371Z,6.85
2023-02-19T11:02:56.590Z,6.69
2023-02-19T11:05:26.062Z,6.78
2023-02-19T11:07:56.903Z,6.86
2023-02-19T11:10:42.979Z,6.87
2023-02-19T11:13:18.453Z,6.92
2023-02-19T11:15:52.389Z,6.86
2023-02-19T11:18:26.627Z,6.78
2023-02-19T11:21:00.479Z,6.84
2023-02-19T11:23:31.482Z,7.05
2023-02-19T11:26:07.317Z,7.01
2023-02-19T11:28:39.439Z,6.98
2023-02-19T11:31:20.236Z,6.97
2023-02-19T11:33:57.265Z,6.71
2023-02-19T11:36:36.286Z,6.86
2023-02-19T11:39:17.076Z,6.92
2023-02-19T11:41:57.002Z,7.02
2023-02-19T11:45:02.796Z,7.18
2023-02-19T11:47:58.893Z,7.26
2023-02-19T11:50:43.250Z,7.43
2023-02-19T11:53:29.769Z,7.28
2023-02-19T11:56:19.551Z,7.33
2023-02-19T11:59:05.452Z,7.50
2023-02-19T12:01:53.317Z,7.38
2023-02-19T12:04:43.925Z,7.37
2023-02-19T12:07:40.700Z,7.21
2023-02-19T12:10:35.017Z,7.10
2023-02-19T12:13:41.489Z,7.08
2023-02-19T12:16:18.562Z,6.83
2023-02-19T12:18:59.609Z,6.99
2023-02-19T12:21:47.608Z,6.86
2023-02-19T12:24:20.587Z,7.01
2023-02-19T12:27:12.393Z,6.68
2023-02-19T12:29:50.729Z,6.83
2023-02-19T12:32:26.460Z,6.92
2023-02-19T12:35:17.648Z,6.92
2023-02-19T12:38:17.569Z,6.80
2023-02-19T12:41:04.588Z,6.81
2023-02-19T12:43:34.350Z,6.75
2023-02-19T12:46:29.428Z,6.75
2023-02-19T12:49:14.519Z,7.06
2023-02-19T12:51:50.064Z,6.90
2023-02-19T12:54:55.625Z,6.95
2023-02-19T12:57:26.746Z,7.07
2023-02-19T13:00:11.319Z,7.09
2023-02-19T13:03:21.388Z,7.17
2023-02-19T13:06:32.782Z,7.12
2023-02-19T13:09:39.868Z,7.16
2023-02-19T13:12:21.445Z,7.29
2023-02-19T13:14:55.221Z,7.19
2023-02-19T13:17:51.021Z,7.21
2023-02-19T13:20:32.936Z,7.20
2023-02-19T13:23:32.732Z,7.14
2023-02-19T13:26:37.670Z,7.11
2023-02-19T13:29:46.871Z,7.11
2023-02-19T13:32:30.798Z,7.12
2023-02-19T13:35:32.208Z,7.13
2023-02-19T13:38:02.839Z,7.09
2023-02-19T13:40:36.344Z,7.08
2023-02-19T13:43:07.721Z,6.91
2023-02-19T13:45:44.471Z,7.01
2023-02-19T13:48:36.250Z,7.24
2023-02-19T13:51:22.702Z,7.03
2023-02-19T13:54:00.778Z,6.90
2023-02-19T13:56:37.130Z,6.85
2023-02-19T13:59:37.911Z,7.04
2023-02-19T14:02:12.867Z,6.81
2023-02-19T14:05:02.628Z,6.77
2023-02-19T14:07:32.211Z,6.83
2023-02-19T14:10:02.700Z,6.82
2023-02-19T14:12:37.010Z,6.80
2023-02-19T14:15:26.209Z,6.80
2023-02-19T14:17:55.718Z,6.70
2023-02-19T14:20:40.548Z,6.81
2023-02-19T14:23:16.964Z,6.93
2023-02-19T14:25:56.416Z,6.82
2023-02-19T14:28:31.355Z,6.92
2023-02-19T14:31:11.260Z,6.94
2023-02-19T14:33:45.526Z,6.97
2023-02-19T14:36:36.143Z,6.94
2023-02-19T14:39:17.670Z,6.95
2023-02-19T14:41:57.942Z,6.78
2023-02-19T14:44:31.526Z,6.72
2023-02-19T14:47:05.842Z,6.82
2023-02-19T14:49:43.294Z,6.83
2023-02-19T14:52:17.833Z,6.86
2023-02-19T14:54:53.123Z,6.68
2023-02-19T14:57:24.721Z,6.71
2023-02-19T14:59:56.503Z,6.69
2023-02-19T15:02:26.450Z,6.65
2023-02-19T15:04:57.492Z,6.81
2023-02-19T15:07:33.380Z,6.72
2023-02-19T15:10:04.907Z,6.66
2023-02-19T15:12:50.263Z,6.87
2023-02-19T15:15:23.884Z,6.76
2023-02-19T15:17:56.231Z,6.82
2023-02-19T15:20:28.466Z,6.82
2023-02-19T15:22:59.375Z,6.91
2023-02-19T15:25:35.327Z,6.92
2023-02-19T15:28:26.766Z,6.33
2023-02-19T15:30:58.198Z,6.17
2023-02-19T15:33:27.994Z,6.05
2023-02-19T15:36:01.898Z,6.02
2023-02-19T15:38:34.471Z,6.13
2023-02-19T15:41:04.309Z,6.05
2023-02-19T15:43:42.510Z,6.02
2023-02-19T15:46:22.331Z,5.94
2023-02-19T15:49:15.528Z,6.05
2023-02-19T15:52:00.388Z,6.14
2023-02-19T15:54:34.911Z,6.25
2023-02-19T15:57:07.530Z,6.30
2023-02-19T15:59:42.591Z,6.30
2023-02-19T16:02:14.080Z,6.25
2023-02-19T16:04:45.428Z,6.17
2023-02-19T16:07:31.972Z,6.28
2023-02-19T16:10:21.139Z,6.27
2023-02-19T16:13:00.786Z,6.33
2023-02-19T16:15:32.599Z,6.28
2023-02-19T16:18:02.573Z,6.36
2023-02-19T16:20:33.742Z,6.43
2023-02-19T16:23:06.208Z,6.42
2023-02-19T16:25:44.563Z,6.24
2023-02-19T16:28:24.596Z,6.22
2023-02-19T16:31:05.011Z,6.06
2023-02-19T16:33:40.392Z,6.12
2023-02-19T16:36:18.047Z,6.04
2023-02-19T16:39:07.456Z,6.35
2023-02-19T16:41:48.891Z,6.21
2023-02-19T16:44:31.482Z,6.43
2023-02-19T16:47:04.467Z,6.39
2023-02-19T16:49:33.912Z,6.48
2023-02-19T16:52:04.406Z,6.34
2023-02-19T16:54:33.958Z,6.52
2023-02-19T16:57:02.850Z,6.44
2023-02-19T16:59:31.830Z,6.30
2023-02-19T17:02:04.698Z,6.03
2023-02-19T17:04:35.368Z,6.17
2023-02-19T17:07:04.330Z,6.12
2023-02-19T17:09:33.880Z,6.15
2023-02-19T17:12:09.150Z,6.57
2023-02-19T17:14:40.520Z,6.76
2023-02-19T17:17:09.565Z,6.88
2023-02-19T17:19:39.621Z,7.12
2023-02-19T17:22:08.846Z,7.20
2023-02-19T17:24:38.279Z,7.14
2023-02-19T17:27:11.784Z,6.96
2023-02-19T17:29:40.681Z,6.91
2023-02-19T17:32:09.884Z,6.92
2023-02-19T17:34:38.882Z,6.98
2023-02-19T17:37:08.201Z,7.10
2023-02-19T17:39:37.642Z,7.17
2023-02-19T17:42:07.119Z,7.05
2023-02-19T17:44:36.736Z,7.01
2023-02-19T17:47:07.579Z,7.07
2023-02-19T17:49:37.219Z,6.97
2023-02-19T17:52:07.849Z,6.89
2023-02-19T17:54:37.760Z,6.83
2023-02-19T17:57:08.016Z,6.91
2023-02-19T17:59:37.064Z,6.95
2023-02-19T18:02:06.617Z,6.94
2023-02-19T18:04:38.963Z,6.92
2023-02-19T18:07:10.518Z,6.94
2023-02-19T18:09:42.307Z,7.05
2023-02-19T18:12:11.873Z,7.04
2023-02-19T18:14:41.051Z,7.08
2023-02-19T18:17:10.099Z,7.17
2023-02-19T18:19:39.819Z,7.30
2023-02-19T18:22:08.817Z,7.35
2023-02-19T18:24:37.718Z,7.48
2023-02-19T18:27:10.620Z,7.51
2023-02-19T18:29:39.580Z,7.46
2023-02-19T18:32:09.611Z,7.66
2023-02-19T18:34:40.325Z,7.98
2023-02-19T18:37:09.349Z,8.03
2023-02-19T18:39:38.972Z,8.27
2023-02-19T18:42:08.540Z,8.26
2023-02-19T18:44:38.251Z,8.17
2023-02-19T18:47:07.719Z,8.33
2023-02-19T18:49:43.080Z,8.31
2023-02-19T18:52:13.080Z,8.41
2023-02-19T18:54:44.320Z,8.40
2023-02-19T18:57:13.800Z,8.31
2023-02-19T18:59:43.221Z,8.44
2023-02-19T19:02:12.781Z,8.38
2023-02-19T19:04:43.552Z,8.48
2023-02-19T19:07:12.738Z,8.50
2023-02-19T19:09:41.821Z,8.63
2023-02-19T19:12:11.072Z,8.71
2023-02-19T19:14:40.574Z,8.43
2023-02-19T19:17:10.172Z,8.49
2023-02-19T19:19:41.929Z,8.52
2023-02-19T19:22:11.314Z,8.78
2023-02-19T19:24:40.940Z,8.55
2023-02-19T19:27:10.843Z,8.86
2023-02-19T19:29:41.143Z,9.17
2023-02-19T19:32:10.933Z,9.43
2023-02-19T19:34:40.152Z,9.70
2023-02-19T19:37:10.102Z,9.92
2023-02-19T19:39:39.144Z,10.16
2023-02-19T19:42:09.694Z,10.12
2023-02-19T19:44:38.620Z,10.28
2023-02-19T19:47:08.755Z,10.33
2023-02-19T19:49:39.220Z,10.34
2023-02-19T19:52:08.903Z,10.20
2023-02-19T19:54:44.990Z,10.12
2023-02-19T19:57:16.568Z,10.07
2023-02-19T19:59:49.343Z,10.07
2023-02-19T20:02:19.289Z,10.19
2023-02-19T20:04:48.528Z,10.36
2023-02-19T20:07:17.485Z,10.24
2023-02-19T20:09:50.324Z,10.15
2023-02-19T20:12:20.683Z,10.15
2023-02-19T20:14:50.119Z,9.96
2023-02-19T20:17:20.668Z,10.05
2023-02-19T20:19:49.807Z,9.79
2023-02-19T20:22:19.970Z,10.00
2023-02-19T20:24:52.840Z,9.98
2023-02-19T20:27:22.055Z,9.83
2023-02-19T20:29:51.396Z,9.83
2023-02-19T20:32:20.982Z,9.77
2023-02-19T20:34:52.155Z,9.76
2023-02-19T20:37:21.075Z,9.79
2023-02-19T20:39:51.020Z,9.83
2023-02-19T20:42:20.249Z,9.73
2023-02-19T20:44:51.029Z,9.98
2023-02-19T20:47:20.159Z,9.93
2023-02-19T20:49:53.318Z,10.01
2023-02-19T20:52:25.101Z,10.01
2023-02-19T20:55:01.550Z,9.91
2023-02-19T20:57:30.783Z,10.03
2023-02-19T21:00:01.160Z,9.97
2023-02-19T21:02:31.284Z,9.94
2023-02-19T21:05:03.396Z,9.89
2023-02-19T21:07:32.492Z,9.99
2023-02-19T21:10:02.005Z,9.75
2023-02-19T21:12:37.072Z,9.61
2023-02-19T21:15:06.704Z,9.46
2023-02-19T21:17:36.177Z,9.39
2023-02-19T21:20:07.868Z,9.35
2023-02-19T21:22:37.579Z,9.29
2023-02-19T21:25:09.917Z,9.05
2023-02-19T21:27:40.266Z,8.94
2023-02-19T21:30:11.489Z,9.02
2023-02-19T21:32:42.132Z,9.07
2023-02-19T21:35:11.964Z,8.93
2023-02-19T21:37:44.767Z,8.90
2023-02-19T21:40:13.915Z,8.96
2023-02-19T21:42:43.822Z,8.86
2023-02-19T21:45:13.479Z,8.85
2023-02-19T21:47:44.298Z,8.76
2023-02-19T21:50:15.552Z,8.72
2023-02-19T21:52:44.961Z,8.62
2023-02-19T21:55:14.613Z,8.69
2023-02-19T21:57:43.863Z,8.55
2023-02-19T22:00:13.786Z,8.53
2023-02-19T22:02:43.327Z,8.61
2023-02-19T22:05:12.570Z,8.64
2023-02-19T22:07:41.765Z,8.51
2023-02-19T22:10:16.427Z,8.52
2023-02-19T22:12:45.815Z,8.44
2023-02-19T22:15:18.138Z,8.52
2023-02-19T22:17:47.284Z,8.60
2023-02-19T22:20:17.591Z,8.54
2023-02-19T22:22:46.800Z,8.35
2023-02-19T22:25:18.362Z,8.35
2023-02-19T22:27:49.369Z,8.51
2023-02-19T22:30:18.488Z,8.56
2023-02-19T22:32:47.122Z,8.50
2023-02-19T22:35:16.043Z,8.47
2023-02-19T22:37:47.327Z,8.48
2023-02-19T22:40:16.664Z,8.67
2023-02-19T22:42:46.899Z,8.75
2023-02-19T22:45:18.762Z,8.73
2023-02-19T22:47:48.110Z,8.65
2023-02-19T22:50:22.831Z,8.52
2023-02-19T22:52:55.732Z,8.56
2023-02-19T22:55:24.610Z,8.58
2023-02-19T22:57:55.962Z,8.48
2023-02-19T23:00:24.719Z,8.48
2023-02-19T23:02:53.411Z,8.54
2023-02-19T23:05:24.958Z,8.64
2023-02-19T23:07:54.154Z,8.33
2023-02-19T23:10:25.931Z,8.16
2023-02-19T23:12:56.620Z,8.15
2023-02-19T23:15:27.079Z,8.04
2023-02-19T23:17:55.723Z,7.97
2023-02-19T23:20:24.444Z,7.83
2023-02-19T23:22:54.478Z,8.11
2023-02-19T23:25:23.493Z,8.05
2023-02-19T23:27:53.069Z,8.23
2023-02-19T23:30:21.958Z,8.21
2023-02-19T23:32:54.240Z,8.20
2023-02-19T23:35:24.122Z,8.31
2023-02-19T23:37:55.682Z,8.27
2023-02-19T23:40:24.564Z,8.31
2023-02-19T23:42:55.022Z,8.29
2023-02-19T23:45:26.500Z,8.17
2023-02-19T23:47:57.685Z,8.08
2023-02-19T23:50:26.571Z,8.14
2023-02-19T23:53:00.682Z,8.16
2023-02-19T23:55:31.007Z,8.31
2023-02-19T23:58:01.469Z,8.19
